DAL1914 FAOR-FZAA
Flight info
| Callsign | DAL1914 |
|---|---|
| Flight time | 3h 29m |
| Altitude | 40000 |
| Route | VASUR3A VASUR UZ21 ITROL UQ25 RUDAS UM731 APKUS UB528 VUE DCT ANUBI UB733 KSA |
| Aircraft | A359/H-SDE2E3GHIJ3J4J5LM1ORWXY/LB1D1 |
Departure
| Time | 2026-05-06 18:30 |
|---|---|
| Airport | O.R. Tambo International Airport (FAOR) |
Arrival
| Time | 2026-05-06 21:59 |
|---|---|
| Airport | Ndjili International Airport (FZAA) |
| Time | Latitude | Longitude | Altitude | Speed | Heading |
|---|---|---|---|---|---|
| 2026-05-06 17:30 | -26.13018 | 28.23365 | 5553 ft | 0 kts | 322° |
| 2026-05-06 18:02 | -26.13026 | 28.23372 | 5553 ft | 4 kts | 322° |
| 2026-05-06 18:03 | -26.13047 | 28.23390 | 5553 ft | 4 kts | 322° |
| 2026-05-06 18:03 | -26.13064 | 28.23405 | 5554 ft | 3 kts | 323° |
| 2026-05-06 18:03 | -26.13087 | 28.23418 | 5553 ft | 4 kts | 355° |
| 2026-05-06 18:03 | -26.13113 | 28.23416 | 5555 ft | 3 kts | 7° |
| 2026-05-06 18:04 | -26.13128 | 28.23414 | 5555 ft | 4 kts | 6° |
| 2026-05-06 18:04 | -26.13155 | 28.23411 | 5553 ft | 4 kts | 6° |
| 2026-05-06 18:04 | -26.13166 | 28.23409 | 5553 ft | 0 kts | 6° |
| 2026-05-06 18:15 | -26.13165 | 28.23410 | 5555 ft | 1 kts | 6° |
| 2026-05-06 18:15 | -26.13142 | 28.23417 | 5555 ft | 8 kts | 23° |
| 2026-05-06 18:15 | -26.13116 | 28.23483 | 5554 ft | 13 kts | 91° |
| 2026-05-06 18:15 | -26.13129 | 28.23615 | 5554 ft | 15 kts | 97° |
| 2026-05-06 18:16 | -26.13135 | 28.23660 | 5556 ft | 6 kts | 102° |
| 2026-05-06 18:16 | -26.13163 | 28.23683 | 5551 ft | 5 kts | 173° |
| 2026-05-06 18:16 | -26.13207 | 28.23676 | 5552 ft | 8 kts | 193° |
| 2026-05-06 18:16 | -26.13262 | 28.23660 | 5552 ft | 9 kts | 195° |
| 2026-05-06 18:17 | -26.13322 | 28.23642 | 5555 ft | 9 kts | 195° |
| 2026-05-06 18:17 | -26.13387 | 28.23622 | 5559 ft | 10 kts | 195° |
| 2026-05-06 18:17 | -26.13461 | 28.23600 | 5559 ft | 12 kts | 195° |
| 2026-05-06 18:17 | -26.13547 | 28.23574 | 5557 ft | 14 kts | 196° |
| 2026-05-06 18:18 | -26.13643 | 28.23543 | 5559 ft | 15 kts | 196° |
| 2026-05-06 18:18 | -26.13741 | 28.23511 | 5564 ft | 15 kts | 196° |
| 2026-05-06 18:18 | -26.13837 | 28.23482 | 5564 ft | 14 kts | 195° |
| 2026-05-06 18:18 | -26.13932 | 28.23453 | 5565 ft | 14 kts | 195° |
| 2026-05-06 18:19 | -26.14024 | 28.23424 | 5567 ft | 13 kts | 195° |
| 2026-05-06 18:19 | -26.14108 | 28.23398 | 5571 ft | 13 kts | 195° |
| 2026-05-06 18:19 | -26.14198 | 28.23370 | 5570 ft | 14 kts | 196° |
| 2026-05-06 18:19 | -26.14297 | 28.23339 | 5571 ft | 15 kts | 196° |
| 2026-05-06 18:20 | -26.14398 | 28.23307 | 5570 ft | 15 kts | 195° |
| 2026-05-06 18:20 | -26.14471 | 28.23285 | 5571 ft | 0 kts | 193° |
| 2026-05-06 18:20 | -26.14478 | 28.23284 | 5571 ft | 3 kts | 193° |
| 2026-05-06 18:21 | -26.14511 | 28.23279 | 5570 ft | 0 kts | 181° |
| 2026-05-06 18:23 | -26.14524 | 28.23279 | 5570 ft | 5 kts | 179° |
| 2026-05-06 18:23 | -26.14567 | 28.23289 | 5571 ft | 7 kts | 163° |
| 2026-05-06 18:24 | -26.14578 | 28.23295 | 5571 ft | 0 kts | 150° |
| 2026-05-06 18:26 | -26.14586 | 28.23302 | 5572 ft | 4 kts | 143° |
| 2026-05-06 18:26 | -26.14609 | 28.23348 | 5571 ft | 10 kts | 109° |
| 2026-05-06 18:26 | -26.14617 | 28.23437 | 5570 ft | 10 kts | 63° |
| 2026-05-06 18:26 | -26.14578 | 28.23456 | 5573 ft | 0 kts | 15° |
| 2026-05-06 18:29 | -26.14575 | 28.23457 | 5570 ft | 5 kts | 15° |
| 2026-05-06 18:30 | -26.14316 | 28.23537 | 5571 ft | 71 kts | 15° |
| 2026-05-06 18:30 | -26.13641 | 28.23744 | 5565 ft | 128 kts | 16° |
| 2026-05-06 18:30 | -26.12617 | 28.24060 | 5553 ft | 176 kts | 16° |
| 2026-05-06 18:30 | -26.11430 | 28.24429 | 6171 ft | 171 kts | 15° |
| 2026-05-06 18:31 | -26.10275 | 28.24824 | 6725 ft | 177 kts | 16° |
| 2026-05-06 18:31 | -26.09050 | 28.25289 | 7074 ft | 196 kts | 17° |
| 2026-05-06 18:31 | -26.07669 | 28.25537 | 7248 ft | 210 kts | 349° |
| 2026-05-06 18:31 | -26.06406 | 28.24742 | 7416 ft | 221 kts | 307° |
| 2026-05-06 18:32 | -26.05687 | 28.23166 | 7655 ft | 238 kts | 289° |
| 2026-05-06 18:32 | -26.05117 | 28.21357 | 7935 ft | 256 kts | 288° |
| 2026-05-06 18:32 | -26.04498 | 28.19440 | 8021 ft | 268 kts | 289° |
| 2026-05-06 18:32 | -26.03742 | 28.17531 | 8022 ft | 271 kts | 299° |
| 2026-05-06 18:33 | -26.02483 | 28.15971 | 8149 ft | 276 kts | 322° |
| 2026-05-06 18:33 | -26.00877 | 28.14792 | 8706 ft | 276 kts | 322° |
| 2026-05-06 18:33 | -25.99346 | 28.13535 | 9543 ft | 270 kts | 319° |
| 2026-05-06 18:33 | -25.97892 | 28.12260 | 10278 ft | 269 kts | 317° |
| 2026-05-06 18:34 | -25.96399 | 28.10922 | 10642 ft | 282 kts | 317° |
| 2026-05-06 18:34 | -25.94831 | 28.09517 | 10961 ft | 296 kts | 317° |
| 2026-05-06 18:34 | -25.93175 | 28.08060 | 11255 ft | 310 kts | 318° |
| 2026-05-06 18:34 | -25.91437 | 28.06559 | 11540 ft | 323 kts | 319° |
| 2026-05-06 18:35 | -25.89626 | 28.05016 | 11841 ft | 333 kts | 319° |
| 2026-05-06 18:35 | -25.87765 | 28.03444 | 12297 ft | 337 kts | 319° |
| 2026-05-06 18:35 | -25.85889 | 28.01859 | 12764 ft | 341 kts | 319° |
| 2026-05-06 18:35 | -25.83999 | 28.00261 | 13285 ft | 342 kts | 319° |
| 2026-05-06 18:36 | -25.82097 | 27.98652 | 13789 ft | 343 kts | 319° |
| 2026-05-06 18:36 | -25.80193 | 27.97040 | 14176 ft | 347 kts | 318° |
| 2026-05-06 18:36 | -25.78269 | 27.95411 | 14660 ft | 349 kts | 318° |
| 2026-05-06 18:36 | -25.76354 | 27.93790 | 15141 ft | 350 kts | 318° |
| 2026-05-06 18:37 | -25.74410 | 27.92143 | 15574 ft | 353 kts | 318° |
| 2026-05-06 18:37 | -25.73112 | 27.91046 | 15872 ft | 354 kts | 318° |
| 2026-05-06 18:37 | -25.70480 | 27.88825 | 16466 ft | 357 kts | 318° |
| 2026-05-06 18:37 | -25.68495 | 27.87151 | 16923 ft | 359 kts | 318° |
| 2026-05-06 18:38 | -25.66506 | 27.85472 | 17382 ft | 360 kts | 318° |
| 2026-05-06 18:38 | -25.64538 | 27.83809 | 17812 ft | 361 kts | 318° |
| 2026-05-06 18:38 | -25.62533 | 27.82116 | 18237 ft | 362 kts | 318° |
| 2026-05-06 18:38 | -25.60519 | 27.80416 | 18645 ft | 364 kts | 318° |
| 2026-05-06 18:39 | -25.58504 | 27.78717 | 19125 ft | 363 kts | 318° |
| 2026-05-06 18:39 | -25.56493 | 27.77025 | 19577 ft | 363 kts | 317° |
| 2026-05-06 18:39 | -25.54475 | 27.75327 | 20005 ft | 363 kts | 318° |
| 2026-05-06 18:40 | -25.50444 | 27.71933 | 20882 ft | 364 kts | 317° |
| 2026-05-06 18:40 | -25.48455 | 27.70258 | 21277 ft | 364 kts | 317° |
| 2026-05-06 18:40 | -25.46431 | 27.68554 | 21657 ft | 364 kts | 317° |
| 2026-05-06 18:40 | -25.44414 | 27.66857 | 22004 ft | 364 kts | 317° |
| 2026-05-06 18:41 | -25.42388 | 27.65155 | 22298 ft | 366 kts | 317° |
| 2026-05-06 18:41 | -25.40355 | 27.63446 | 22626 ft | 367 kts | 317° |
| 2026-05-06 18:41 | -25.38314 | 27.61732 | 22922 ft | 368 kts | 317° |
| 2026-05-06 18:41 | -25.36292 | 27.60034 | 23210 ft | 369 kts | 317° |
| 2026-05-06 18:42 | -25.34243 | 27.58313 | 23515 ft | 370 kts | 317° |
| 2026-05-06 18:42 | -25.32192 | 27.56591 | 23825 ft | 370 kts | 317° |
| 2026-05-06 18:42 | -25.30135 | 27.54867 | 24128 ft | 371 kts | 317° |
| 2026-05-06 18:42 | -25.28069 | 27.53135 | 24403 ft | 373 kts | 317° |
| 2026-05-06 18:43 | -25.25989 | 27.51393 | 24617 ft | 375 kts | 317° |
| 2026-05-06 18:43 | -25.23902 | 27.49645 | 24887 ft | 377 kts | 317° |
| 2026-05-06 18:43 | -25.21829 | 27.47912 | 25172 ft | 377 kts | 317° |
| 2026-05-06 18:43 | -25.19731 | 27.46159 | 25412 ft | 379 kts | 317° |
| 2026-05-06 18:44 | -25.17625 | 27.44400 | 25649 ft | 381 kts | 317° |
| 2026-05-06 18:44 | -25.15501 | 27.42626 | 25891 ft | 383 kts | 317° |
| 2026-05-06 18:44 | -25.13383 | 27.40847 | 26205 ft | 383 kts | 317° |
| 2026-05-06 18:44 | -25.11255 | 27.39073 | 26392 ft | 386 kts | 318° |
| 2026-05-06 18:45 | -25.09111 | 27.37294 | 26601 ft | 387 kts | 317° |
| 2026-05-06 18:45 | -25.06957 | 27.35483 | 26899 ft | 389 kts | 317° |
| 2026-05-06 18:45 | -25.04798 | 27.33673 | 27275 ft | 390 kts | 318° |
| 2026-05-06 18:45 | -25.03353 | 27.32480 | 27521 ft | 387 kts | 318° |
| 2026-05-06 18:46 | -25.00455 | 27.30086 | 27787 ft | 391 kts | 317° |
| 2026-05-06 18:46 | -24.98303 | 27.28287 | 28036 ft | 393 kts | 317° |
| 2026-05-06 18:46 | -24.96119 | 27.26456 | 28299 ft | 394 kts | 317° |
| 2026-05-06 18:46 | -24.93926 | 27.24618 | 28508 ft | 396 kts | 317° |
| 2026-05-06 18:47 | -24.91710 | 27.22783 | 28852 ft | 399 kts | 318° |
| 2026-05-06 18:47 | -24.89484 | 27.20952 | 29236 ft | 399 kts | 317° |
| 2026-05-06 18:47 | -24.87242 | 27.19101 | 29545 ft | 402 kts | 317° |
| 2026-05-06 18:47 | -24.85038 | 27.17259 | 29866 ft | 403 kts | 317° |
| 2026-05-06 18:48 | -24.82813 | 27.15391 | 30194 ft | 404 kts | 317° |
| 2026-05-06 18:48 | -24.80573 | 27.13515 | 30464 ft | 405 kts | 317° |
| 2026-05-06 18:48 | -24.78315 | 27.11644 | 30672 ft | 407 kts | 317° |
| 2026-05-06 18:48 | -24.76026 | 27.09759 | 30948 ft | 410 kts | 318° |
| 2026-05-06 18:49 | -24.73739 | 27.07874 | 31231 ft | 414 kts | 317° |
| 2026-05-06 18:49 | -24.72221 | 27.06619 | 31437 ft | 412 kts | 317° |
| 2026-05-06 18:49 | -24.69918 | 27.04722 | 31639 ft | 413 kts | 317° |
| 2026-05-06 18:49 | -24.67599 | 27.02817 | 31767 ft | 417 kts | 317° |
| 2026-05-06 18:50 | -24.65269 | 27.00898 | 31956 ft | 418 kts | 317° |
| 2026-05-06 18:50 | -24.62935 | 26.98961 | 32164 ft | 421 kts | 317° |
| 2026-05-06 18:50 | -24.60623 | 26.97030 | 32435 ft | 423 kts | 317° |
| 2026-05-06 18:50 | -24.58277 | 26.95073 | 32690 ft | 422 kts | 317° |
| 2026-05-06 18:51 | -24.55921 | 26.93121 | 32915 ft | 425 kts | 316° |
| 2026-05-06 18:51 | -24.53563 | 26.91171 | 33026 ft | 427 kts | 317° |
| 2026-05-06 18:51 | -24.51171 | 26.89218 | 33248 ft | 428 kts | 317° |
| 2026-05-06 18:51 | -24.48789 | 26.87272 | 33557 ft | 427 kts | 317° |
| 2026-05-06 18:52 | -24.46413 | 26.85327 | 33834 ft | 425 kts | 316° |
| 2026-05-06 18:52 | -24.44039 | 26.83375 | 34062 ft | 426 kts | 316° |
| 2026-05-06 18:52 | -24.41678 | 26.81425 | 34356 ft | 425 kts | 316° |
| 2026-05-06 18:52 | -24.39316 | 26.79456 | 34685 ft | 425 kts | 315° |
| 2026-05-06 18:53 | -24.36973 | 26.77481 | 35045 ft | 424 kts | 316° |
| 2026-05-06 18:53 | -24.34632 | 26.75526 | 35382 ft | 421 kts | 316° |
| 2026-05-06 18:53 | -24.32170 | 26.73721 | 35550 ft | 432 kts | 322° |
| 2026-05-06 18:53 | -24.29518 | 26.72231 | 35887 ft | 436 kts | 327° |
| 2026-05-06 18:54 | -24.26751 | 26.70855 | 36243 ft | 438 kts | 328° |
| 2026-05-06 18:54 | -24.23957 | 26.69526 | 36680 ft | 436 kts | 329° |
| 2026-05-06 18:54 | -24.21156 | 26.68224 | 36949 ft | 436 kts | 329° |
| 2026-05-06 18:54 | -24.18359 | 26.66926 | 37170 ft | 437 kts | 329° |
| 2026-05-06 18:55 | -24.15551 | 26.65618 | 37445 ft | 436 kts | 329° |
| 2026-05-06 18:55 | -24.12762 | 26.64314 | 37771 ft | 435 kts | 329° |
| 2026-05-06 18:55 | -24.09985 | 26.63010 | 38056 ft | 434 kts | 329° |
| 2026-05-06 18:55 | -24.07209 | 26.61705 | 38331 ft | 434 kts | 329° |
| 2026-05-06 18:56 | -24.04473 | 26.60415 | 38594 ft | 433 kts | 329° |
| 2026-05-06 18:56 | -24.01707 | 26.59111 | 38854 ft | 432 kts | 329° |
| 2026-05-06 18:56 | -23.98944 | 26.57810 | 39114 ft | 432 kts | 329° |
| 2026-05-06 18:56 | -23.96181 | 26.56509 | 39327 ft | 432 kts | 329° |
| 2026-05-06 18:57 | -23.93417 | 26.55208 | 39564 ft | 432 kts | 329° |
| 2026-05-06 18:57 | -23.90653 | 26.53907 | 39742 ft | 433 kts | 329° |
| 2026-05-06 18:57 | -23.87885 | 26.52605 | 39926 ft | 433 kts | 329° |
| 2026-05-06 18:57 | -23.85118 | 26.51304 | 40063 ft | 435 kts | 329° |
| 2026-05-06 18:58 | -23.82331 | 26.49995 | 40102 ft | 435 kts | 329° |
| 2026-05-06 18:58 | -23.76761 | 26.47386 | 40101 ft | 434 kts | 329° |
| 2026-05-06 18:59 | -23.71236 | 26.44798 | 40100 ft | 434 kts | 329° |
| 2026-05-06 18:59 | -23.65677 | 26.42187 | 40101 ft | 434 kts | 329° |
| 2026-05-06 19:00 | -23.60124 | 26.39567 | 40101 ft | 434 kts | 329° |
| 2026-05-06 19:00 | -23.54577 | 26.36952 | 40100 ft | 434 kts | 329° |
| 2026-05-06 19:01 | -23.49053 | 26.34353 | 40100 ft | 435 kts | 329° |
| 2026-05-06 19:01 | -23.43494 | 26.31740 | 40091 ft | 435 kts | 329° |
| 2026-05-06 19:02 | -23.37927 | 26.29128 | 40091 ft | 435 kts | 329° |
| 2026-05-06 19:02 | -23.32362 | 26.26518 | 40091 ft | 436 kts | 329° |
| 2026-05-06 19:03 | -23.26788 | 26.23906 | 40091 ft | 436 kts | 329° |
| 2026-05-06 19:03 | -23.21212 | 26.21296 | 40092 ft | 436 kts | 329° |
| 2026-05-06 19:04 | -23.15674 | 26.18706 | 40091 ft | 436 kts | 329° |
| 2026-05-06 19:04 | -23.10087 | 26.16095 | 40100 ft | 437 kts | 329° |
| 2026-05-06 19:05 | -23.04500 | 26.13486 | 40110 ft | 437 kts | 329° |
| 2026-05-06 19:05 | -22.98891 | 26.10870 | 40110 ft | 438 kts | 329° |
| 2026-05-06 19:06 | -22.93325 | 26.08277 | 40109 ft | 438 kts | 330° |
| 2026-05-06 19:06 | -22.87721 | 26.05668 | 40103 ft | 439 kts | 330° |
| 2026-05-06 19:07 | -22.82101 | 26.03053 | 40100 ft | 439 kts | 329° |
| 2026-05-06 19:07 | -22.76483 | 26.00442 | 40103 ft | 440 kts | 329° |
| 2026-05-06 19:08 | -22.70854 | 25.97829 | 40107 ft | 441 kts | 329° |
| 2026-05-06 19:08 | -22.65206 | 25.95208 | 40100 ft | 441 kts | 329° |
| 2026-05-06 19:09 | -22.59555 | 25.92589 | 40101 ft | 442 kts | 329° |
| 2026-05-06 19:09 | -22.53924 | 25.89982 | 40101 ft | 442 kts | 329° |
| 2026-05-06 19:10 | -22.48262 | 25.87363 | 40100 ft | 442 kts | 329° |
| 2026-05-06 19:10 | -22.42606 | 25.84748 | 40100 ft | 443 kts | 330° |
| 2026-05-06 19:11 | -22.36938 | 25.82130 | 40100 ft | 443 kts | 330° |
| 2026-05-06 19:11 | -22.31271 | 25.79516 | 40100 ft | 443 kts | 330° |
| 2026-05-06 19:12 | -22.25591 | 25.76897 | 40091 ft | 443 kts | 330° |
| 2026-05-06 19:12 | -22.19921 | 25.74285 | 40092 ft | 443 kts | 330° |
| 2026-05-06 19:13 | -22.14246 | 25.71674 | 40091 ft | 443 kts | 330° |
| 2026-05-06 19:13 | -22.08562 | 25.69060 | 40091 ft | 444 kts | 330° |
| 2026-05-06 19:14 | -22.02907 | 25.66462 | 40091 ft | 444 kts | 330° |
| 2026-05-06 19:14 | -21.97215 | 25.63850 | 40091 ft | 444 kts | 330° |
| 2026-05-06 19:15 | -21.91533 | 25.61244 | 40091 ft | 444 kts | 330° |
| 2026-05-06 19:15 | -21.85848 | 25.58639 | 40091 ft | 444 kts | 330° |
| 2026-05-06 19:16 | -21.80192 | 25.56049 | 40091 ft | 445 kts | 330° |
| 2026-05-06 19:16 | -21.74492 | 25.53442 | 40091 ft | 445 kts | 330° |
| 2026-05-06 19:17 | -21.68781 | 25.50833 | 40091 ft | 445 kts | 330° |
| 2026-05-06 19:17 | -21.63105 | 25.48241 | 40082 ft | 445 kts | 330° |
| 2026-05-06 19:18 | -21.57386 | 25.45657 | 40082 ft | 446 kts | 331° |
| 2026-05-06 19:18 | -21.51588 | 25.43210 | 40082 ft | 447 kts | 332° |
| 2026-05-06 19:19 | -21.45786 | 25.40800 | 40082 ft | 447 kts | 332° |
| 2026-05-06 19:19 | -21.40030 | 25.38387 | 40083 ft | 447 kts | 331° |
| 2026-05-06 19:20 | -21.34220 | 25.35938 | 40082 ft | 448 kts | 331° |
| 2026-05-06 19:20 | -21.28418 | 25.33489 | 40082 ft | 448 kts | 331° |
| 2026-05-06 19:21 | -21.22638 | 25.31053 | 40082 ft | 448 kts | 331° |
| 2026-05-06 19:21 | -21.16836 | 25.28611 | 40082 ft | 448 kts | 332° |
| 2026-05-06 19:22 | -21.11022 | 25.26166 | 40076 ft | 448 kts | 332° |
| 2026-05-06 19:22 | -21.05203 | 25.23720 | 40075 ft | 449 kts | 332° |
| 2026-05-06 19:23 | -20.99385 | 25.21274 | 40061 ft | 449 kts | 331° |
| 2026-05-06 19:23 | -20.93711 | 25.18570 | 40077 ft | 446 kts | 328° |
| 2026-05-06 19:24 | -20.88101 | 25.15715 | 40076 ft | 446 kts | 328° |
| 2026-05-06 19:24 | -20.82453 | 25.13039 | 40082 ft | 448 kts | 330° |
| 2026-05-06 19:25 | -20.76676 | 25.10466 | 40082 ft | 449 kts | 330° |
| 2026-05-06 19:25 | -20.70915 | 25.07882 | 40082 ft | 448 kts | 330° |
| 2026-05-06 19:26 | -20.65166 | 25.05270 | 40083 ft | 448 kts | 330° |
| 2026-05-06 19:26 | -20.59432 | 25.02653 | 40082 ft | 448 kts | 330° |
| 2026-05-06 19:27 | -20.53723 | 25.00049 | 40083 ft | 449 kts | 330° |
| 2026-05-06 19:27 | -20.47973 | 24.97430 | 40082 ft | 449 kts | 330° |
| 2026-05-06 19:28 | -20.42210 | 24.94808 | 40082 ft | 449 kts | 330° |
| 2026-05-06 19:28 | -20.36451 | 24.92190 | 40082 ft | 450 kts | 330° |
| 2026-05-06 19:29 | -20.30724 | 24.89589 | 40082 ft | 450 kts | 330° |
| 2026-05-06 19:29 | -20.24960 | 24.86974 | 40082 ft | 450 kts | 330° |
| 2026-05-06 19:30 | -20.19184 | 24.84355 | 40083 ft | 450 kts | 330° |
| 2026-05-06 19:30 | -20.13416 | 24.81741 | 40082 ft | 450 kts | 330° |
| 2026-05-06 19:31 | -20.07642 | 24.79127 | 40082 ft | 450 kts | 330° |
| 2026-05-06 19:31 | -19.99020 | 24.75228 | 40082 ft | 450 kts | 330° |
| 2026-05-06 19:32 | -19.93242 | 24.72617 | 40082 ft | 451 kts | 330° |
| 2026-05-06 19:32 | -19.87453 | 24.70003 | 40082 ft | 452 kts | 330° |
| 2026-05-06 19:33 | -19.82641 | 24.67832 | 40082 ft | 452 kts | 330° |
| 2026-05-06 19:33 | -19.76856 | 24.65225 | 40082 ft | 452 kts | 330° |
| 2026-05-06 19:34 | -19.70125 | 24.62194 | 40083 ft | 452 kts | 330° |
| 2026-05-06 19:34 | -19.65272 | 24.60009 | 40081 ft | 452 kts | 330° |
| 2026-05-06 19:35 | -19.59483 | 24.57405 | 40081 ft | 452 kts | 330° |
| 2026-05-06 19:35 | -19.53734 | 24.54821 | 40083 ft | 452 kts | 330° |
| 2026-05-06 19:36 | -19.47899 | 24.52201 | 40081 ft | 452 kts | 330° |
| 2026-05-06 19:36 | -19.42144 | 24.49619 | 40083 ft | 452 kts | 330° |
| 2026-05-06 19:37 | -19.36344 | 24.47019 | 40082 ft | 452 kts | 330° |
| 2026-05-06 19:37 | -19.30554 | 24.44425 | 40083 ft | 452 kts | 330° |
| 2026-05-06 19:38 | -19.24753 | 24.41828 | 40081 ft | 452 kts | 330° |
| 2026-05-06 19:38 | -19.18941 | 24.39228 | 40082 ft | 453 kts | 330° |
| 2026-05-06 19:39 | -19.13125 | 24.36628 | 40082 ft | 454 kts | 330° |
| 2026-05-06 19:39 | -19.07301 | 24.34028 | 40076 ft | 454 kts | 330° |
| 2026-05-06 19:40 | -19.01512 | 24.31444 | 40076 ft | 454 kts | 330° |
| 2026-05-06 19:40 | -18.95689 | 24.28847 | 40076 ft | 455 kts | 330° |
| 2026-05-06 19:41 | -18.89837 | 24.26239 | 40076 ft | 456 kts | 330° |
| 2026-05-06 19:41 | -18.83994 | 24.23638 | 40076 ft | 456 kts | 330° |
| 2026-05-06 19:42 | -18.78146 | 24.21036 | 40077 ft | 456 kts | 330° |
| 2026-05-06 19:42 | -18.72284 | 24.18430 | 40075 ft | 457 kts | 331° |
| 2026-05-06 19:43 | -18.66421 | 24.15825 | 40078 ft | 457 kts | 331° |
| 2026-05-06 19:43 | -18.60578 | 24.13232 | 40082 ft | 458 kts | 330° |
| 2026-05-06 19:44 | -18.54699 | 24.10624 | 40082 ft | 458 kts | 330° |
| 2026-05-06 19:44 | -18.48818 | 24.08017 | 40081 ft | 458 kts | 331° |
| 2026-05-06 19:45 | -18.42929 | 24.05408 | 40083 ft | 459 kts | 331° |
| 2026-05-06 19:45 | -18.37029 | 24.02797 | 40081 ft | 459 kts | 331° |
| 2026-05-06 19:46 | -18.31166 | 24.00205 | 40081 ft | 459 kts | 331° |
| 2026-05-06 19:46 | -18.25270 | 23.97599 | 40082 ft | 459 kts | 331° |
| 2026-05-06 19:47 | -18.19354 | 23.94987 | 40082 ft | 459 kts | 331° |
| 2026-05-06 19:47 | -18.13491 | 23.92399 | 40081 ft | 459 kts | 331° |
| 2026-05-06 19:48 | -18.07595 | 23.89800 | 40079 ft | 459 kts | 331° |
| 2026-05-06 19:48 | -18.01693 | 23.87199 | 40067 ft | 459 kts | 331° |
| 2026-05-06 19:49 | -17.95796 | 23.84602 | 40064 ft | 459 kts | 331° |
| 2026-05-06 19:49 | -17.89894 | 23.82006 | 40057 ft | 459 kts | 331° |
| 2026-05-06 19:50 | -17.83992 | 23.79411 | 40063 ft | 459 kts | 331° |
| 2026-05-06 19:50 | -17.78092 | 23.76818 | 40076 ft | 460 kts | 331° |
| 2026-05-06 19:51 | -17.72212 | 23.74236 | 40069 ft | 460 kts | 331° |
| 2026-05-06 19:51 | -17.66305 | 23.71645 | 40070 ft | 460 kts | 331° |
| 2026-05-06 19:52 | -17.60383 | 23.69048 | 40069 ft | 461 kts | 331° |
| 2026-05-06 19:52 | -17.54446 | 23.66466 | 40070 ft | 462 kts | 332° |
| 2026-05-06 19:53 | -17.48472 | 23.63953 | 40064 ft | 463 kts | 332° |
| 2026-05-06 19:53 | -17.42486 | 23.61447 | 40061 ft | 463 kts | 332° |
| 2026-05-06 19:54 | -17.36495 | 23.58930 | 40068 ft | 464 kts | 332° |
| 2026-05-06 19:54 | -17.30497 | 23.56404 | 40081 ft | 465 kts | 332° |
| 2026-05-06 19:55 | -17.24496 | 23.53877 | 40082 ft | 465 kts | 332° |
| 2026-05-06 19:55 | -17.18521 | 23.51363 | 40082 ft | 465 kts | 332° |
| 2026-05-06 19:56 | -17.12499 | 23.48832 | 40083 ft | 466 kts | 332° |
| 2026-05-06 19:56 | -17.06469 | 23.46298 | 40081 ft | 467 kts | 332° |
| 2026-05-06 19:57 | -17.00474 | 23.43782 | 40083 ft | 467 kts | 332° |
| 2026-05-06 19:57 | -16.94429 | 23.41245 | 40082 ft | 468 kts | 332° |
| 2026-05-06 19:58 | -16.88375 | 23.38708 | 40084 ft | 469 kts | 332° |
| 2026-05-06 19:58 | -16.82307 | 23.36166 | 40091 ft | 469 kts | 332° |
| 2026-05-06 19:59 | -16.76243 | 23.33628 | 40090 ft | 470 kts | 332° |
| 2026-05-06 19:59 | -16.70162 | 23.31083 | 40091 ft | 470 kts | 332° |
| 2026-05-06 20:00 | -16.64121 | 23.28558 | 40091 ft | 471 kts | 332° |
| 2026-05-06 20:00 | -16.58040 | 23.26018 | 40091 ft | 471 kts | 332° |
| 2026-05-06 20:01 | -16.51950 | 23.23475 | 40091 ft | 472 kts | 332° |
| 2026-05-06 20:01 | -16.45844 | 23.20928 | 40093 ft | 472 kts | 332° |
| 2026-05-06 20:02 | -16.39742 | 23.18384 | 40101 ft | 472 kts | 332° |
| 2026-05-06 20:02 | -16.33644 | 23.15844 | 40100 ft | 472 kts | 332° |
| 2026-05-06 20:03 | -16.27572 | 23.13316 | 40100 ft | 472 kts | 332° |
| 2026-05-06 20:03 | -16.21465 | 23.10774 | 40100 ft | 473 kts | 332° |
| 2026-05-06 20:04 | -16.15357 | 23.08235 | 40100 ft | 473 kts | 332° |
| 2026-05-06 20:04 | -16.09238 | 23.05692 | 40100 ft | 473 kts | 332° |
| 2026-05-06 20:05 | -16.03160 | 23.03168 | 40104 ft | 473 kts | 332° |
| 2026-05-06 20:05 | -15.97047 | 23.00631 | 40109 ft | 473 kts | 332° |
| 2026-05-06 20:06 | -15.90927 | 22.98092 | 40110 ft | 474 kts | 333° |
| 2026-05-06 20:06 | -15.84786 | 22.95547 | 40110 ft | 475 kts | 333° |
| 2026-05-06 20:07 | -15.78633 | 22.93000 | 40110 ft | 476 kts | 333° |
| 2026-05-06 20:07 | -15.72511 | 22.90467 | 40109 ft | 476 kts | 333° |
| 2026-05-06 20:08 | -15.66361 | 22.87923 | 40109 ft | 476 kts | 333° |
| 2026-05-06 20:08 | -15.60222 | 22.85352 | 40112 ft | 475 kts | 331° |
| 2026-05-06 20:09 | -15.54183 | 22.82596 | 40119 ft | 474 kts | 330° |
| 2026-05-06 20:09 | -15.48164 | 22.79802 | 40119 ft | 474 kts | 330° |
| 2026-05-06 20:10 | -15.42132 | 22.77037 | 40121 ft | 474 kts | 331° |
| 2026-05-06 20:10 | -15.36090 | 22.74292 | 40119 ft | 474 kts | 331° |
| 2026-05-06 20:11 | -15.30037 | 22.71549 | 40118 ft | 474 kts | 331° |
| 2026-05-06 20:11 | -15.24028 | 22.68827 | 40119 ft | 474 kts | 331° |
| 2026-05-06 20:12 | -15.17968 | 22.66084 | 40118 ft | 475 kts | 331° |
| 2026-05-06 20:12 | -15.11917 | 22.63345 | 40119 ft | 475 kts | 331° |
| 2026-05-06 20:13 | -15.05855 | 22.60603 | 40113 ft | 475 kts | 331° |
| 2026-05-06 20:13 | -14.99796 | 22.57864 | 40101 ft | 476 kts | 331° |
| 2026-05-06 20:14 | -14.93765 | 22.55139 | 40100 ft | 476 kts | 331° |
| 2026-05-06 20:14 | -14.87691 | 22.52396 | 40100 ft | 476 kts | 331° |
| 2026-05-06 20:15 | -14.81604 | 22.49650 | 40100 ft | 476 kts | 331° |
| 2026-05-06 20:15 | -14.75548 | 22.46919 | 40100 ft | 476 kts | 331° |
| 2026-05-06 20:16 | -14.69460 | 22.44176 | 40100 ft | 477 kts | 331° |
| 2026-05-06 20:16 | -14.63363 | 22.41430 | 40101 ft | 477 kts | 332° |
| 2026-05-06 20:17 | -14.57303 | 22.38702 | 40100 ft | 477 kts | 332° |
| 2026-05-06 20:17 | -14.51219 | 22.35965 | 40109 ft | 477 kts | 332° |
| 2026-05-06 20:18 | -14.45121 | 22.33222 | 40110 ft | 477 kts | 332° |
| 2026-05-06 20:18 | -14.39456 | 22.29800 | 40110 ft | 469 kts | 320° |
| 2026-05-06 20:19 | -14.34291 | 22.25693 | 40113 ft | 469 kts | 317° |
| 2026-05-06 20:19 | -14.29223 | 22.21444 | 40109 ft | 469 kts | 316° |
| 2026-05-06 20:20 | -14.24185 | 22.17227 | 40109 ft | 469 kts | 317° |
| 2026-05-06 20:20 | -14.19929 | 22.13696 | 40109 ft | 469 kts | 317° |
| 2026-05-06 20:21 | -14.14852 | 22.09503 | 40109 ft | 470 kts | 317° |
| 2026-05-06 20:21 | -14.09732 | 22.05282 | 40109 ft | 470 kts | 317° |
| 2026-05-06 20:22 | -14.04655 | 22.01097 | 40109 ft | 470 kts | 317° |
| 2026-05-06 20:22 | -13.99633 | 21.96786 | 40110 ft | 468 kts | 314° |
| 2026-05-06 20:23 | -13.94867 | 21.92219 | 40109 ft | 467 kts | 313° |
| 2026-05-06 20:23 | -13.90117 | 21.87639 | 40109 ft | 468 kts | 313° |
| 2026-05-06 20:24 | -13.85323 | 21.83099 | 40109 ft | 468 kts | 313° |
| 2026-05-06 20:24 | -13.80542 | 21.78617 | 40109 ft | 468 kts | 314° |
| 2026-05-06 20:25 | -13.75721 | 21.74107 | 40109 ft | 468 kts | 314° |
| 2026-05-06 20:25 | -13.70904 | 21.69601 | 40109 ft | 468 kts | 314° |
| 2026-05-06 20:26 | -13.66084 | 21.65092 | 40109 ft | 468 kts | 314° |
| 2026-05-06 20:26 | -13.61262 | 21.60583 | 40109 ft | 468 kts | 314° |
| 2026-05-06 20:27 | -13.56466 | 21.56102 | 40110 ft | 468 kts | 314° |
| 2026-05-06 20:27 | -13.51651 | 21.51605 | 40109 ft | 468 kts | 314° |
| 2026-05-06 20:28 | -13.46826 | 21.47101 | 40109 ft | 468 kts | 314° |
| 2026-05-06 20:28 | -13.41992 | 21.42592 | 40109 ft | 469 kts | 314° |
| 2026-05-06 20:29 | -13.37158 | 21.38085 | 40111 ft | 469 kts | 314° |
| 2026-05-06 20:29 | -13.32325 | 21.33581 | 40109 ft | 469 kts | 314° |
| 2026-05-06 20:30 | -13.25094 | 21.26848 | 40100 ft | 469 kts | 314° |
| 2026-05-06 20:31 | -13.20255 | 21.22346 | 40101 ft | 469 kts | 314° |
| 2026-05-06 20:31 | -13.15419 | 21.17849 | 40100 ft | 469 kts | 314° |
| 2026-05-06 20:32 | -13.10609 | 21.13378 | 40101 ft | 469 kts | 314° |
| 2026-05-06 20:32 | -13.05770 | 21.08882 | 40100 ft | 469 kts | 314° |
| 2026-05-06 20:33 | -13.00926 | 21.04385 | 40101 ft | 470 kts | 314° |
| 2026-05-06 20:33 | -12.96077 | 20.99886 | 40101 ft | 470 kts | 314° |
| 2026-05-06 20:34 | -12.91227 | 20.95388 | 40100 ft | 469 kts | 314° |
| 2026-05-06 20:34 | -12.86385 | 20.90900 | 40100 ft | 469 kts | 314° |
| 2026-05-06 20:35 | -12.81556 | 20.86427 | 40090 ft | 470 kts | 314° |
| 2026-05-06 20:35 | -12.76703 | 20.81933 | 40075 ft | 469 kts | 314° |
| 2026-05-06 20:36 | -12.71852 | 20.77444 | 40077 ft | 469 kts | 314° |
| 2026-05-06 20:36 | -12.67026 | 20.72980 | 40076 ft | 470 kts | 314° |
| 2026-05-06 20:37 | -12.62175 | 20.68496 | 40078 ft | 470 kts | 314° |
| 2026-05-06 20:37 | -12.57316 | 20.64007 | 40077 ft | 470 kts | 315° |
| 2026-05-06 20:38 | -12.52491 | 20.59551 | 40078 ft | 470 kts | 315° |
| 2026-05-06 20:38 | -12.47635 | 20.55069 | 40078 ft | 470 kts | 315° |
| 2026-05-06 20:39 | -12.42779 | 20.50591 | 40077 ft | 470 kts | 315° |
| 2026-05-06 20:39 | -12.37921 | 20.46111 | 40077 ft | 470 kts | 315° |
| 2026-05-06 20:40 | -12.33058 | 20.41631 | 40077 ft | 469 kts | 315° |
| 2026-05-06 20:40 | -12.28221 | 20.37175 | 40076 ft | 470 kts | 315° |
| 2026-05-06 20:41 | -12.23356 | 20.32697 | 40059 ft | 470 kts | 315° |
| 2026-05-06 20:41 | -12.18491 | 20.28221 | 40068 ft | 470 kts | 315° |
| 2026-05-06 20:42 | -12.13665 | 20.23783 | 40055 ft | 470 kts | 315° |
| 2026-05-06 20:42 | -12.08795 | 20.19307 | 40058 ft | 470 kts | 315° |
| 2026-05-06 20:43 | -12.03932 | 20.14839 | 40074 ft | 470 kts | 315° |
| 2026-05-06 20:43 | -11.99068 | 20.10374 | 40058 ft | 470 kts | 315° |
| 2026-05-06 20:44 | -11.94202 | 20.05908 | 40067 ft | 470 kts | 315° |
| 2026-05-06 20:44 | -11.89369 | 20.01475 | 40052 ft | 470 kts | 315° |
| 2026-05-06 20:45 | -11.84497 | 19.97009 | 40048 ft | 470 kts | 315° |
| 2026-05-06 20:45 | -11.79626 | 19.92545 | 40064 ft | 470 kts | 315° |
| 2026-05-06 20:46 | -11.74451 | 19.88455 | 40063 ft | 473 kts | 323° |
| 2026-05-06 20:46 | -11.68886 | 19.84848 | 40054 ft | 474 kts | 325° |
| 2026-05-06 20:47 | -11.63297 | 19.81345 | 40059 ft | 474 kts | 325° |
| 2026-05-06 20:47 | -11.57658 | 19.77815 | 40041 ft | 475 kts | 325° |
| 2026-05-06 20:48 | -11.52028 | 19.74278 | 40049 ft | 475 kts | 325° |
| 2026-05-06 20:48 | -11.46402 | 19.70736 | 40028 ft | 475 kts | 325° |
| 2026-05-06 20:49 | -11.40779 | 19.67196 | 40009 ft | 475 kts | 325° |
| 2026-05-06 20:49 | -11.35139 | 19.63648 | 39996 ft | 476 kts | 325° |
| 2026-05-06 20:50 | -11.29534 | 19.60124 | 39990 ft | 476 kts | 325° |
| 2026-05-06 20:50 | -11.23889 | 19.56578 | 39993 ft | 477 kts | 326° |
| 2026-05-06 20:51 | -11.18238 | 19.53027 | 39993 ft | 477 kts | 326° |
| 2026-05-06 20:51 | -11.12568 | 19.49468 | 39978 ft | 478 kts | 326° |
| 2026-05-06 20:52 | -11.06899 | 19.45909 | 39975 ft | 478 kts | 326° |
| 2026-05-06 20:52 | -11.01227 | 19.42353 | 39980 ft | 478 kts | 326° |
| 2026-05-06 20:53 | -10.95591 | 19.38818 | 39984 ft | 479 kts | 326° |
| 2026-05-06 20:53 | -10.89908 | 19.35257 | 39982 ft | 479 kts | 326° |
| 2026-05-06 20:54 | -10.84227 | 19.31699 | 39975 ft | 479 kts | 326° |
| 2026-05-06 20:54 | -10.78539 | 19.28140 | 39971 ft | 480 kts | 326° |
| 2026-05-06 20:55 | -10.72855 | 19.24580 | 39979 ft | 480 kts | 326° |
| 2026-05-06 20:55 | -10.67197 | 19.21039 | 39977 ft | 480 kts | 326° |
| 2026-05-06 20:56 | -10.61499 | 19.17476 | 39965 ft | 480 kts | 326° |
| 2026-05-06 20:56 | -10.55802 | 19.13918 | 39972 ft | 481 kts | 326° |
| 2026-05-06 20:57 | -10.50094 | 19.10351 | 39965 ft | 481 kts | 326° |
| 2026-05-06 20:57 | -10.44388 | 19.06789 | 39962 ft | 481 kts | 326° |
| 2026-05-06 20:58 | -10.38682 | 19.03227 | 39965 ft | 481 kts | 326° |
| 2026-05-06 20:58 | -10.33013 | 18.99690 | 39964 ft | 481 kts | 326° |
| 2026-05-06 20:59 | -10.27304 | 18.96128 | 39960 ft | 481 kts | 326° |
| 2026-05-06 20:59 | -10.21581 | 18.92561 | 39959 ft | 481 kts | 326° |
| 2026-05-06 21:00 | -10.15900 | 18.89021 | 39964 ft | 482 kts | 326° |
| 2026-05-06 21:00 | -10.10186 | 18.85463 | 39958 ft | 482 kts | 326° |
| 2026-05-06 21:01 | -10.04474 | 18.81906 | 39959 ft | 482 kts | 326° |
| 2026-05-06 21:01 | -9.98753 | 18.78343 | 39954 ft | 482 kts | 326° |
| 2026-05-06 21:02 | -9.93036 | 18.74788 | 39951 ft | 482 kts | 327° |
| 2026-05-06 21:02 | -9.87307 | 18.71226 | 39954 ft | 483 kts | 327° |
| 2026-05-06 21:03 | -9.81573 | 18.67662 | 39950 ft | 483 kts | 327° |
| 2026-05-06 21:03 | -9.75869 | 18.64120 | 39929 ft | 476 kts | 327° |
| 2026-05-06 21:04 | -9.70254 | 18.60639 | 39878 ft | 472 kts | 327° |
| 2026-05-06 21:04 | -9.64581 | 18.57122 | 39876 ft | 484 kts | 327° |
| 2026-05-06 21:05 | -9.58833 | 18.53560 | 39900 ft | 482 kts | 327° |
| 2026-05-06 21:05 | -9.53102 | 18.50007 | 39916 ft | 482 kts | 327° |
| 2026-05-06 21:06 | -9.48351 | 18.47062 | 39931 ft | 482 kts | 327° |
| 2026-05-06 21:06 | -9.41690 | 18.42936 | 39941 ft | 482 kts | 327° |
| 2026-05-06 21:07 | -9.36939 | 18.39994 | 39953 ft | 482 kts | 327° |
| 2026-05-06 21:07 | -9.31216 | 18.36451 | 39961 ft | 482 kts | 327° |
| 2026-05-06 21:08 | -9.25496 | 18.32910 | 39986 ft | 482 kts | 327° |
| 2026-05-06 21:08 | -9.19770 | 18.29369 | 39999 ft | 481 kts | 328° |
| 2026-05-06 21:09 | -9.14049 | 18.25849 | 39944 ft | 481 kts | 327° |
| 2026-05-06 21:09 | -9.08374 | 18.22324 | 39944 ft | 481 kts | 327° |
| 2026-05-06 21:10 | -9.02663 | 18.18783 | 39944 ft | 481 kts | 327° |
| 2026-05-06 21:10 | -8.96943 | 18.15249 | 39945 ft | 481 kts | 328° |
| 2026-05-06 21:11 | -8.91228 | 18.11717 | 39944 ft | 481 kts | 328° |
| 2026-05-06 21:11 | -8.85520 | 18.08193 | 39934 ft | 481 kts | 328° |
| 2026-05-06 21:12 | -8.79807 | 18.04665 | 39941 ft | 480 kts | 328° |
| 2026-05-06 21:12 | -8.74137 | 18.01164 | 39942 ft | 480 kts | 328° |
| 2026-05-06 21:13 | -8.68425 | 17.97641 | 39945 ft | 480 kts | 328° |
| 2026-05-06 21:13 | -8.62721 | 17.94125 | 39942 ft | 480 kts | 328° |
| 2026-05-06 21:14 | -8.57016 | 17.90607 | 39945 ft | 480 kts | 328° |
| 2026-05-06 21:14 | -8.51310 | 17.87092 | 39947 ft | 480 kts | 328° |
| 2026-05-06 21:15 | -8.45642 | 17.83599 | 39949 ft | 480 kts | 329° |
| 2026-05-06 21:15 | -8.39934 | 17.80084 | 39953 ft | 480 kts | 329° |
| 2026-05-06 21:16 | -8.34230 | 17.76572 | 39956 ft | 480 kts | 329° |
| 2026-05-06 21:16 | -8.28526 | 17.73064 | 39951 ft | 480 kts | 329° |
| 2026-05-06 21:17 | -8.22818 | 17.69552 | 39955 ft | 479 kts | 329° |
| 2026-05-06 21:17 | -8.17124 | 17.66052 | 39954 ft | 479 kts | 329° |
| 2026-05-06 21:18 | -8.11431 | 17.62552 | 39950 ft | 479 kts | 329° |
| 2026-05-06 21:18 | -8.05738 | 17.59054 | 39954 ft | 479 kts | 329° |
| 2026-05-06 21:19 | -8.00044 | 17.55555 | 39945 ft | 479 kts | 329° |
| 2026-05-06 21:19 | -7.94341 | 17.52053 | 39940 ft | 480 kts | 329° |
| 2026-05-06 21:20 | -7.88669 | 17.48573 | 39945 ft | 480 kts | 329° |
| 2026-05-06 21:20 | -7.82957 | 17.45068 | 39942 ft | 481 kts | 329° |
| 2026-05-06 21:21 | -7.77239 | 17.41560 | 39945 ft | 480 kts | 329° |
| 2026-05-06 21:21 | -7.71522 | 17.38052 | 39943 ft | 480 kts | 329° |
| 2026-05-06 21:22 | -7.65848 | 17.34572 | 39944 ft | 480 kts | 329° |
| 2026-05-06 21:22 | -7.60121 | 17.31062 | 39945 ft | 480 kts | 329° |
| 2026-05-06 21:23 | -7.54413 | 17.27564 | 39942 ft | 480 kts | 329° |
| 2026-05-06 21:23 | -7.48691 | 17.24060 | 39941 ft | 480 kts | 329° |
| 2026-05-06 21:24 | -7.42983 | 17.20565 | 39943 ft | 480 kts | 329° |
| 2026-05-06 21:24 | -7.37263 | 17.17063 | 39945 ft | 481 kts | 329° |
| 2026-05-06 21:25 | -7.31548 | 17.13566 | 39941 ft | 481 kts | 329° |
| 2026-05-06 21:25 | -7.25868 | 17.10092 | 39942 ft | 481 kts | 329° |
| 2026-05-06 21:26 | -7.20120 | 17.06576 | 39942 ft | 481 kts | 329° |
| 2026-05-06 21:26 | -7.14397 | 17.03080 | 39943 ft | 481 kts | 329° |
| 2026-05-06 21:27 | -7.08664 | 16.99574 | 39943 ft | 481 kts | 329° |
| 2026-05-06 21:27 | -7.02975 | 16.96097 | 39945 ft | 481 kts | 329° |
| 2026-05-06 21:28 | -6.97249 | 16.92599 | 39941 ft | 481 kts | 329° |
| 2026-05-06 21:28 | -6.91486 | 16.89079 | 39943 ft | 482 kts | 329° |
| 2026-05-06 21:29 | -6.85755 | 16.85583 | 39944 ft | 482 kts | 329° |
| 2026-05-06 21:29 | -6.80058 | 16.82107 | 39945 ft | 482 kts | 329° |
| 2026-05-06 21:30 | -6.74323 | 16.78606 | 39942 ft | 482 kts | 329° |
| 2026-05-06 21:30 | -6.68588 | 16.75108 | 39944 ft | 482 kts | 329° |
| 2026-05-06 21:31 | -6.62843 | 16.71604 | 39944 ft | 482 kts | 329° |
| 2026-05-06 21:31 | -6.57141 | 16.68128 | 39945 ft | 482 kts | 329° |
| 2026-05-06 21:32 | -6.51403 | 16.64632 | 39942 ft | 481 kts | 329° |
| 2026-05-06 21:32 | -6.42810 | 16.59393 | 39942 ft | 481 kts | 329° |
| 2026-05-06 21:33 | -6.37072 | 16.55898 | 39944 ft | 481 kts | 329° |
| 2026-05-06 21:33 | -6.31380 | 16.52432 | 39943 ft | 481 kts | 329° |
| 2026-05-06 21:34 | -6.25657 | 16.48948 | 39939 ft | 481 kts | 329° |
| 2026-05-06 21:34 | -6.19921 | 16.45458 | 39933 ft | 480 kts | 329° |
| 2026-05-06 21:35 | -6.14192 | 16.41972 | 39933 ft | 480 kts | 329° |
| 2026-05-06 21:35 | -6.08511 | 16.38515 | 39933 ft | 480 kts | 329° |
| 2026-05-06 21:36 | -6.02783 | 16.35033 | 39936 ft | 481 kts | 329° |
| 2026-05-06 21:36 | -5.97026 | 16.31623 | 39935 ft | 480 kts | 332° |
| 2026-05-06 21:37 | -5.91126 | 16.28477 | 39933 ft | 480 kts | 333° |
| 2026-05-06 21:37 | -5.85245 | 16.25315 | 39933 ft | 479 kts | 332° |
| 2026-05-06 21:38 | -5.79368 | 16.22134 | 39772 ft | 476 kts | 332° |
| 2026-05-06 21:38 | -5.76455 | 16.20554 | 39007 ft | 477 kts | 332° |
| 2026-05-06 21:38 | -5.73520 | 16.18962 | 38162 ft | 480 kts | 332° |
| 2026-05-06 21:39 | -5.70579 | 16.17367 | 37389 ft | 481 kts | 332° |
| 2026-05-06 21:39 | -5.67633 | 16.15769 | 36646 ft | 481 kts | 332° |
| 2026-05-06 21:39 | -5.64689 | 16.14172 | 35909 ft | 480 kts | 332° |
| 2026-05-06 21:39 | -5.61741 | 16.12573 | 35133 ft | 481 kts | 332° |
| 2026-05-06 21:40 | -5.58790 | 16.10972 | 34288 ft | 482 kts | 332° |
| 2026-05-06 21:40 | -5.55828 | 16.09366 | 33401 ft | 485 kts | 332° |
| 2026-05-06 21:40 | -5.52856 | 16.07754 | 32484 ft | 488 kts | 332° |
| 2026-05-06 21:40 | -5.49930 | 16.06080 | 31489 ft | 492 kts | 330° |
| 2026-05-06 21:41 | -5.46972 | 16.04314 | 30480 ft | 495 kts | 329° |
| 2026-05-06 21:41 | -5.43999 | 16.02540 | 29421 ft | 498 kts | 329° |
| 2026-05-06 21:41 | -5.40998 | 16.00759 | 28468 ft | 499 kts | 329° |
| 2026-05-06 21:41 | -5.38015 | 15.98995 | 27723 ft | 495 kts | 330° |
| 2026-05-06 21:42 | -5.35058 | 15.97250 | 26986 ft | 490 kts | 330° |
| 2026-05-06 21:42 | -5.32127 | 15.95524 | 26225 ft | 486 kts | 330° |
| 2026-05-06 21:42 | -5.29217 | 15.93812 | 25471 ft | 482 kts | 330° |
| 2026-05-06 21:42 | -5.26331 | 15.92114 | 24724 ft | 478 kts | 329° |
| 2026-05-06 21:43 | -5.23513 | 15.90456 | 23996 ft | 473 kts | 329° |
| 2026-05-06 21:43 | -5.20691 | 15.88796 | 23251 ft | 468 kts | 329° |
| 2026-05-06 21:43 | -5.17888 | 15.87148 | 22523 ft | 463 kts | 330° |
| 2026-05-06 21:43 | -5.15121 | 15.85520 | 21796 ft | 458 kts | 330° |
| 2026-05-06 21:44 | -5.12403 | 15.83910 | 21065 ft | 450 kts | 330° |
| 2026-05-06 21:44 | -5.09716 | 15.82334 | 20346 ft | 445 kts | 330° |
| 2026-05-06 21:44 | -5.07056 | 15.80774 | 19626 ft | 440 kts | 330° |
| 2026-05-06 21:44 | -5.04424 | 15.79229 | 18899 ft | 436 kts | 330° |
| 2026-05-06 21:45 | -5.01818 | 15.77702 | 18166 ft | 433 kts | 330° |
| 2026-05-06 21:45 | -4.99258 | 15.76197 | 17440 ft | 428 kts | 330° |
| 2026-05-06 21:45 | -4.96697 | 15.74689 | 16707 ft | 426 kts | 330° |
| 2026-05-06 21:45 | -4.94149 | 15.73195 | 15967 ft | 421 kts | 330° |
| 2026-05-06 21:46 | -4.91650 | 15.71710 | 15227 ft | 415 kts | 330° |
| 2026-05-06 21:46 | -4.89168 | 15.70255 | 14484 ft | 411 kts | 330° |
| 2026-05-06 21:46 | -4.86715 | 15.68820 | 13764 ft | 405 kts | 330° |
| 2026-05-06 21:46 | -4.84294 | 15.67402 | 13021 ft | 400 kts | 330° |
| 2026-05-06 21:47 | -4.81905 | 15.66001 | 12311 ft | 395 kts | 330° |
| 2026-05-06 21:47 | -4.79550 | 15.64619 | 11596 ft | 390 kts | 330° |
| 2026-05-06 21:47 | -4.77226 | 15.63255 | 10892 ft | 384 kts | 330° |
| 2026-05-06 21:47 | -4.74968 | 15.61930 | 10648 ft | 367 kts | 330° |
| 2026-05-06 21:48 | -4.72822 | 15.60671 | 10517 ft | 348 kts | 330° |
| 2026-05-06 21:48 | -4.70783 | 15.59473 | 10390 ft | 331 kts | 330° |
| 2026-05-06 21:48 | -4.68848 | 15.58338 | 10251 ft | 314 kts | 330° |
| 2026-05-06 21:48 | -4.67004 | 15.57255 | 10116 ft | 300 kts | 330° |
| 2026-05-06 21:49 | -4.65260 | 15.56232 | 9983 ft | 287 kts | 330° |
| 2026-05-06 21:49 | -4.63548 | 15.55259 | 9849 ft | 287 kts | 333° |
| 2026-05-06 21:49 | -4.61595 | 15.54717 | 9781 ft | 297 kts | 359° |
| 2026-05-06 21:49 | -4.59613 | 15.55108 | 9409 ft | 293 kts | 26° |
| 2026-05-06 21:50 | -4.58065 | 15.56401 | 8889 ft | 292 kts | 54° |
| 2026-05-06 21:50 | -4.56953 | 15.58101 | 8504 ft | 293 kts | 53° |
| 2026-05-06 21:50 | -4.55561 | 15.59593 | 8143 ft | 292 kts | 41° |
| 2026-05-06 21:50 | -4.54004 | 15.60839 | 7802 ft | 289 kts | 37° |
| 2026-05-06 21:51 | -4.52338 | 15.61962 | 7456 ft | 288 kts | 32° |
| 2026-05-06 21:51 | -4.50583 | 15.62943 | 7110 ft | 288 kts | 27° |
| 2026-05-06 21:51 | -4.48753 | 15.63758 | 6762 ft | 287 kts | 21° |
| 2026-05-06 21:51 | -4.46884 | 15.64401 | 6417 ft | 286 kts | 17° |
| 2026-05-06 21:52 | -4.44957 | 15.64885 | 6067 ft | 285 kts | 12° |
| 2026-05-06 21:52 | -4.43007 | 15.65202 | 5728 ft | 283 kts | 7° |
| 2026-05-06 21:52 | -4.41042 | 15.65353 | 5414 ft | 282 kts | 2° |
| 2026-05-06 21:52 | -4.39086 | 15.65341 | 5097 ft | 282 kts | 357° |
| 2026-05-06 21:53 | -4.37812 | 15.65239 | 4941 ft | 273 kts | 353° |
| 2026-05-06 21:53 | -4.35980 | 15.64971 | 4848 ft | 258 kts | 350° |
| 2026-05-06 21:53 | -4.34274 | 15.64585 | 4745 ft | 245 kts | 345° |
| 2026-05-06 21:53 | -4.32687 | 15.64097 | 4623 ft | 233 kts | 339° |
| 2026-05-06 21:54 | -4.31258 | 15.63436 | 4547 ft | 221 kts | 333° |
| 2026-05-06 21:54 | -4.29940 | 15.62732 | 4447 ft | 209 kts | 330° |
| 2026-05-06 21:54 | -4.28901 | 15.61788 | 4358 ft | 199 kts | 302° |
| 2026-05-06 21:54 | -4.28560 | 15.60522 | 4303 ft | 181 kts | 265° |
| 2026-05-06 21:55 | -4.28913 | 15.59368 | 4244 ft | 175 kts | 239° |
| 2026-05-06 21:55 | -4.29598 | 15.58372 | 4004 ft | 173 kts | 233° |
| 2026-05-06 21:55 | -4.30279 | 15.57394 | 3768 ft | 169 kts | 236° |
| 2026-05-06 21:55 | -4.30897 | 15.56409 | 3505 ft | 161 kts | 238° |
| 2026-05-06 21:56 | -4.31477 | 15.55500 | 3280 ft | 154 kts | 237° |
| 2026-05-06 21:56 | -4.32056 | 15.54600 | 3085 ft | 149 kts | 237° |
| 2026-05-06 21:56 | -4.32591 | 15.53766 | 2880 ft | 140 kts | 237° |
| 2026-05-06 21:56 | -4.33106 | 15.52961 | 2705 ft | 136 kts | 237° |
| 2026-05-06 21:57 | -4.33621 | 15.52159 | 2515 ft | 137 kts | 237° |
| 2026-05-06 21:57 | -4.34137 | 15.51355 | 2341 ft | 137 kts | 237° |
| 2026-05-06 21:57 | -4.34650 | 15.50554 | 2161 ft | 136 kts | 237° |
| 2026-05-06 21:57 | -4.35162 | 15.49755 | 1982 ft | 136 kts | 237° |
| 2026-05-06 21:58 | -4.35674 | 15.48957 | 1800 ft | 136 kts | 237° |
| 2026-05-06 21:58 | -4.36183 | 15.48162 | 1619 ft | 135 kts | 237° |
| 2026-05-06 21:58 | -4.36683 | 15.47383 | 1442 ft | 135 kts | 237° |
| 2026-05-06 21:58 | -4.37189 | 15.46595 | 1273 ft | 134 kts | 237° |
| 2026-05-06 21:59 | -4.37691 | 15.45805 | 1091 ft | 134 kts | 237° |
| 2026-05-06 21:59 | -4.38185 | 15.45036 | 1033 ft | 123 kts | 237° |
| 2026-05-06 21:59 | -4.38536 | 15.44494 | 1039 ft | 50 kts | 237° |
| 2026-05-06 21:59 | -4.38602 | 15.44392 | 1037 ft | 7 kts | 237° |
| 2026-05-06 22:00 | -4.38651 | 15.44317 | 1037 ft | 16 kts | 237° |
| 2026-05-06 22:00 | -4.38716 | 15.44217 | 1037 ft | 19 kts | 237° |
| 2026-05-06 22:00 | -4.38791 | 15.44103 | 1035 ft | 11 kts | 231° |
| 2026-05-06 22:00 | -4.38800 | 15.44095 | 1035 ft | 6 kts | 219° |
| 2026-05-06 22:01 | -4.38864 | 15.44108 | 1035 ft | 11 kts | 147° |
| 2026-05-06 22:01 | -4.38904 | 15.44134 | 1036 ft | 7 kts | 146° |
| 2026-05-06 22:01 | -4.38951 | 15.44167 | 1037 ft | 7 kts | 137° |
| 2026-05-06 22:01 | -4.38951 | 15.44189 | 1037 ft | 4 kts | 80° |
| 2026-05-06 22:02 | -4.38930 | 15.44234 | 1037 ft | 10 kts | 59° |
| 2026-05-06 22:02 | -4.38889 | 15.44300 | 1038 ft | 7 kts | 57° |
| 2026-05-06 22:02 | -4.38873 | 15.44325 | 1039 ft | 5 kts | 57° |
| 2026-05-06 22:02 | -4.38847 | 15.44363 | 1040 ft | 8 kts | 55° |
| 2026-05-06 22:03 | -4.38843 | 15.44385 | 1040 ft | 1 kts | 116° |
| 2026-05-06 22:03 | -4.38858 | 15.44402 | 1039 ft | 5 kts | 133° |
| 2026-05-06 22:03 | -4.38883 | 15.44423 | 1039 ft | 0 kts | 144° |
| 2026-05-06 22:03 | -4.38890 | 15.44427 | 1039 ft | 2 kts | 145° |
| 2026-05-06 22:04 | -4.38891 | 15.44428 | 1039 ft | 0 kts | 145° |